»·PEaware :: QXE2503 KRNO-KSEA

QXE2503 :: KRNO-KSEA

FLIGHT INFORMATION

Flight Status: Arrived
Operator:
Horizon Air
More flights by this operator :: More flights under this callsign
Pilot: Matthew M. (8235)
Aircraft: DEHAVILLAND DASH 8 400
(DH8D)
More flights by this aircraft type
Origin: KRNO Reno/Tahoe Intl
United States
Destination: KSEA Seattle-Tacoma Intl
United States
More flights between these airports :: More routes between these airports
Route: FMG8 FMG WNDEL J92 LMT BTG KRIEG HAWKZ7
File this flight plan on PilotEdge
Remarks:
Altitude:
(Current/Filed)
24,000ft
Speed:
(Current/Filed)
329kts
Departed: 23-Jul-20 03:43 PM
Arrived: 23-Jul-20 05:46 PM
Distance/Time
Traveled:
489nm/2:02
Distance/Time
To Go:
Arrived

Flight Plot

Page will automatically refresh every two minutes.

Flight plan parsing failed; only flown route is shown


Map Options




Map Legend


Flown Route
Filed Route
Departure Airport
Arrival Airport
Navaid (VOR, NDB)
Fix

Horizontal Profiles

Position Reports

Time Latitude Longitude Heading Altitude Ground
Speed
23-Jul-20 15:19 39.505103 -119.773303 0 4422ft 0kts
23-Jul-20 15:20 39.505103 -119.773303 0 4422ft 0kts
23-Jul-20 15:21 39.505103 -119.773303 0 4422ft 0kts
23-Jul-20 15:22 39.505103 -119.773303 0 4422ft 0kts
23-Jul-20 15:23 39.505103 -119.773303 0 4422ft 0kts
23-Jul-20 15:24 39.505103 -119.773303 0 4422ft 0kts
23-Jul-20 15:25 39.505103 -119.773303 0 4422ft 0kts
23-Jul-20 15:26 39.505103 -119.773303 0 4422ft 0kts
23-Jul-20 15:27 39.505103 -119.773303 0 4422ft 0kts
23-Jul-20 15:28 39.505103 -119.773303 0 4422ft 0kts
23-Jul-20 15:29 39.505103 -119.773303 0 4422ft 0kts
23-Jul-20 15:30 39.505103 -119.773303 0 4422ft 0kts
23-Jul-20 15:31 39.505103 -119.773303 0 4422ft 0kts
23-Jul-20 15:32 39.504670 -119.773359 16 4422ft 2kts
23-Jul-20 15:33 39.504383 -119.773806 90 4422ft 0kts
23-Jul-20 15:34 39.504383 -119.773806 90 4422ft 0kts
23-Jul-20 15:35 39.504380 -119.772780 90 4422ft 0kts
23-Jul-20 15:36 39.504386 -119.771749 81 4422ft 5kts
23-Jul-20 15:37 39.506796 -119.771602 359 4422ft 19kts
23-Jul-20 15:38 39.513412 -119.771539 11 4422ft 11kts
23-Jul-20 15:39 39.513545 -119.769900 90 4422ft 4kts
23-Jul-20 15:40 39.513105 -119.766727 181 4422ft 0kts
23-Jul-20 15:41 39.513105 -119.766727 181 4422ft 0kts
23-Jul-20 15:42 39.497573 -119.766788 181 4422ft 130kts
23-Jul-20 15:43 39.489386 -119.766204 83 4422ft 11kts
23-Jul-20 15:44 39.494269 -119.765253 0 4422ft 29kts
23-Jul-20 15:45 39.496588 -119.770763 350 4422ft 14kts
23-Jul-20 15:46 39.497103 -119.770719 0 4422ft 0kts
23-Jul-20 15:47 39.497103 -119.770719 0 4422ft 0kts
23-Jul-20 15:48 39.497122 -119.770719 0 4422ft 0kts
23-Jul-20 15:49 39.501061 -119.770704 359 4422ft 30kts
23-Jul-20 15:50 39.510723 -119.770642 359 4422ft 20kts
23-Jul-20 15:51 39.513394 -119.766749 155 4422ft 11kts
23-Jul-20 15:52 39.500692 -119.766786 179 4422ft 125kts
23-Jul-20 15:53 39.459601 -119.764940 182 5791ft 148kts
23-Jul-20 15:54 39.415078 -119.767522 151 7129ft 185kts
23-Jul-20 15:55 39.438548 -119.718017 26 8339ft 211kts
23-Jul-20 15:56 39.490635 -119.683261 26 10038ft 211kts
23-Jul-20 15:57 39.547383 -119.672970 335 11219ft 233kts
23-Jul-20 15:58 39.607440 -119.713155 329 12222ft 259kts
23-Jul-20 15:59 39.670243 -119.760930 328 13213ft 270kts
23-Jul-20 16:00 39.732675 -119.808450 328 14170ft 274kts
23-Jul-20 16:01 39.797677 -119.857850 329 15154ft 276kts
23-Jul-20 16:02 39.863411 -119.907981 329 16142ft 277kts
23-Jul-20 16:03 39.929105 -119.958153 329 17129ft 277kts
23-Jul-20 16:04 39.994339 -120.008140 329 18111ft 272kts
23-Jul-20 16:05 40.058839 -120.057718 329 19100ft 269kts
23-Jul-20 16:06 40.127491 -120.089356 342 20078ft 262kts
23-Jul-20 16:07 40.194878 -120.116574 342 20725ft 267kts
23-Jul-20 16:08 40.263763 -120.144392 342 21205ft 277kts
23-Jul-20 16:09 40.337075 -120.174167 342 21697ft 282kts
23-Jul-20 16:10 40.410996 -120.204250 342 22191ft 282kts
23-Jul-20 16:11 40.485000 -120.234395 342 22684ft 281kts
23-Jul-20 16:12 40.558244 -120.264319 341 23173ft 282kts
23-Jul-20 16:13 40.632415 -120.294536 341 23668ft 281kts
23-Jul-20 16:14 40.706192 -120.324829 341 24000ft 286kts
23-Jul-20 16:15 40.781503 -120.355856 341 24021ft 299kts
23-Jul-20 16:16 40.860453 -120.387714 340 24019ft 308kts
23-Jul-20 16:17 40.940401 -120.420711 340 24021ft 312kts
23-Jul-20 16:18 41.022299 -120.454789 340 24017ft 318kts
23-Jul-20 16:19 41.105065 -120.489301 340 24015ft 321kts
23-Jul-20 16:20 41.188038 -120.523983 340 24013ft 323kts
23-Jul-20 16:21 41.272234 -120.559263 340 24011ft 324kts
23-Jul-20 16:22 41.356442 -120.594641 340 24008ft 325kts
23-Jul-20 16:23 41.439807 -120.629777 340 24011ft 322kts
23-Jul-20 16:24 41.523243 -120.665014 340 24011ft 321kts
23-Jul-20 16:25 41.607224 -120.700592 340 24009ft 323kts
23-Jul-20 16:26 41.690359 -120.735924 340 24011ft 324kts
23-Jul-20 16:27 41.775545 -120.772208 340 24014ft 324kts
23-Jul-20 16:28 41.860110 -120.808340 340 24020ft 323kts
23-Jul-20 16:29 41.943868 -120.844229 340 24024ft 321kts
23-Jul-20 16:30 42.027842 -120.880226 340 24024ft 322kts
23-Jul-20 16:31 42.111659 -120.916200 340 24022ft 323kts
23-Jul-20 16:32 42.196973 -120.953089 340 24028ft 323kts
23-Jul-20 16:33 42.280400 -120.989300 340 24030ft 324kts
23-Jul-20 16:34 42.364490 -121.025779 340 24030ft 324kts
23-Jul-20 16:35 42.449152 -121.062698 340 24029ft 324kts
23-Jul-20 16:36 42.534689 -121.100090 340 24029ft 324kts
23-Jul-20 16:37 42.615188 -121.135384 340 24030ft 323kts
23-Jul-20 16:38 42.691836 -121.169077 340 24031ft 323kts
23-Jul-20 16:39 42.778100 -121.206987 339 24032ft 323kts
23-Jul-20 16:40 42.865476 -121.245624 339 24037ft 323kts
23-Jul-20 16:41 42.953291 -121.284576 339 24040ft 323kts
23-Jul-20 16:42 43.040291 -121.323283 339 24043ft 323kts
23-Jul-20 16:43 43.125374 -121.361266 339 24047ft 323kts
23-Jul-20 16:44 43.213009 -121.400508 339 24051ft 323kts
23-Jul-20 16:45 43.293903 -121.436757 339 24055ft 323kts
23-Jul-20 16:46 43.377129 -121.474222 339 24068ft 322kts
23-Jul-20 16:47 43.454216 -121.509053 339 24075ft 322kts
23-Jul-20 16:48 43.536669 -121.546427 339 24080ft 321kts
23-Jul-20 16:49 43.619467 -121.584105 339 24083ft 321kts
23-Jul-20 16:50 43.696843 -121.619431 339 24087ft 321kts
23-Jul-20 16:51 43.778505 -121.656725 339 24088ft 321kts
23-Jul-20 16:52 43.862488 -121.695221 338 24089ft 320kts
23-Jul-20 16:53 43.944987 -121.733094 338 24078ft 320kts
23-Jul-20 16:54 44.024086 -121.769607 338 24072ft 320kts
23-Jul-20 16:55 44.105210 -121.807112 338 24065ft 320kts
23-Jul-20 16:56 44.186690 -121.844886 338 24051ft 320kts
23-Jul-20 16:57 44.269447 -121.883368 338 24047ft 320kts
23-Jul-20 16:58 44.351685 -121.921721 338 24055ft 319kts
23-Jul-20 16:59 44.430479 -121.958583 338 24049ft 319kts
23-Jul-20 17:00 44.511503 -121.996599 338 24044ft 319kts
23-Jul-20 17:01 44.595306 -122.036216 338 24042ft 319kts
23-Jul-20 17:02 44.677772 -122.075263 339 24038ft 318kts
23-Jul-20 17:03 44.761892 -122.115174 339 24019ft 318kts
23-Jul-20 17:04 44.845910 -122.155089 339 24015ft 317kts
23-Jul-20 17:05 44.930864 -122.195633 339 24018ft 316kts
23-Jul-20 17:06 45.012770 -122.234829 339 24015ft 315kts
23-Jul-20 17:07 45.092793 -122.273168 339 24017ft 315kts
23-Jul-20 17:08 45.168794 -122.309741 339 24019ft 314kts
23-Jul-20 17:09 45.247642 -122.347787 339 24023ft 313kts
23-Jul-20 17:10 45.324211 -122.384795 339 24033ft 313kts
23-Jul-20 17:11 45.403573 -122.423308 339 24035ft 313kts
23-Jul-20 17:12 45.479448 -122.460140 338 24038ft 312kts
23-Jul-20 17:13 45.561984 -122.500399 339 24038ft 312kts
23-Jul-20 17:14 45.641005 -122.539093 339 24042ft 312kts
23-Jul-20 17:15 45.719378 -122.577555 338 24043ft 312kts
23-Jul-20 17:16 45.800892 -122.603714 349 24046ft 314kts
23-Jul-20 17:17 45.883333 -122.621928 347 24053ft 313kts
23-Jul-20 17:18 45.965457 -122.640898 348 24058ft 313kts
23-Jul-20 17:19 46.047760 -122.659514 348 24066ft 313kts
23-Jul-20 17:20 46.129221 -122.678228 348 24073ft 312kts
23-Jul-20 17:21 46.211306 -122.697039 348 23844ft 316kts
23-Jul-20 17:22 46.294119 -122.716055 348 22130ft 318kts
23-Jul-20 17:23 46.380739 -122.724524 356 20360ft 321kts
23-Jul-20 17:24 46.467046 -122.727074 354 18590ft 327kts
23-Jul-20 17:25 46.556566 -122.730698 355 16757ft 333kts
23-Jul-20 17:26 46.645655 -122.734020 355 14933ft 329kts
23-Jul-20 17:27 46.731678 -122.737173 355 13171ft 323kts
23-Jul-20 17:28 46.812542 -122.706437 35 12162ft 305kts
23-Jul-20 17:29 46.873728 -122.634436 34 12103ft 290kts
23-Jul-20 17:30 46.940048 -122.562788 24 12009ft 311kts
23-Jul-20 17:31 47.018512 -122.526321 12 11988ft 302kts
23-Jul-20 17:32 47.098033 -122.495623 5 11468ft 309kts
23-Jul-20 17:33 47.178856 -122.482355 4 10177ft 319kts
23-Jul-20 17:34 47.264227 -122.468808 4 9066ft 289kts
23-Jul-20 17:35 47.335475 -122.457981 4 8198ft 253kts
23-Jul-20 17:36 47.405989 -122.454569 358 7061ft 261kts
23-Jul-20 17:37 47.470976 -122.455323 358 6373ft 220kts
23-Jul-20 17:38 47.529665 -122.455429 358 6007ft 209kts
23-Jul-20 17:39 47.584630 -122.447228 26 5975ft 191kts
23-Jul-20 17:40 47.609764 -122.385115 91 4267ft 195kts
23-Jul-20 17:41 47.581060 -122.319998 153 2582ft 187kts
23-Jul-20 17:42 47.535462 -122.310031 182 1815ft 157kts
23-Jul-20 17:43 47.492101 -122.310762 181 983ft 149kts
23-Jul-20 17:44 47.455628 -122.311101 179 441ft 84kts
23-Jul-20 17:45 47.446950 -122.309641 150 440ft 9kts
23-Jul-20 17:46 47.445669 -122.306467 151 440ft 7kts
23-Jul-20 17:47 47.443405 -122.306021 88 440ft 4kts
23-Jul-20 17:48 47.444002 -122.305436 1 440ft 2kts
23-Jul-20 17:49 47.444176 -122.305438 356 440ft 0kts
23-Jul-20 17:50 47.444132 -122.304856 136 440ft 2kts

Navigation Log

Ident Type
Flight plan parsing failed, navigation log unavailable